Time;durP1;ratioP1;P1;durP2;ratioP2;P2;SDS_P1;SDS_P2;PMS_P1;PMS_P2;Temp;Humidity;BMP_temperature;BMP_pressure;BME280_temperature;BME280_humidity;BME280_pressure;Samples;Min_cycle;Max_cycle;Signal;HPM_P1;HPM_P2
2022/05/04 00:01:59;;;;;;;6.65;4.47;;;11.20;77.60;;;;;;650757;219;26553;-76
2022/05/04 00:04:27;;;;;;;5.75;4.80;;;11.10;76.80;;;;;;650777;221;26791;-76
2022/05/04 00:06:54;;;;;;;7.20;4.90;;;11.10;76.80;;;;;;650848;221;26532;-76
2022/05/04 00:09:22;;;;;;;6.72;4.75;;;11.00;77.00;;;;;;650751;220;26805;-76
2022/05/04 00:11:48;;;;;;;6.87;4.78;;;11.00;76.60;;;;;;650686;218;26601;-76
2022/05/04 00:14:15;;;;;;;6.57;4.82;;;10.90;77.20;;;;;;650857;221;26781;-75
2022/05/04 00:16:43;;;;;;;5.03;4.30;;;10.80;77.60;;;;;;652180;218;26604;-76
2022/05/04 00:19:10;;;;;;;6.00;4.57;;;10.80;78.80;;;;;;652227;220;26566;-76
2022/05/04 00:21:38;;;;;;;7.93;5.05;;;10.60;78.30;;;;;;651862;220;26631;-75
2022/05/04 00:24:06;;;;;;;6.47;4.82;;;10.60;79.20;;;;;;651715;221;26524;-76
2022/05/04 00:26:33;;;;;;;6.75;4.62;;;10.60;79.10;;;;;;651519;221;26750;-76
2022/05/04 00:29:01;;;;;;;4.40;4.00;;;10.60;79.90;;;;;;651422;221;26548;-76
2022/05/04 00:31:29;;;;;;;5.57;4.43;;;10.60;79.40;;;;;;651388;221;26574;-76
2022/05/04 00:33:57;;;;;;;6.45;4.60;;;10.60;79.40;;;;;;651354;221;26590;-77
2022/05/04 00:36:25;;;;;;;6.05;4.87;;;10.70;78.60;;;;;;651124;221;26520;-76
2022/05/04 00:38:52;;;;;;;6.68;4.70;;;10.70;78.60;;;;;;651141;221;26516;-77
2022/05/04 00:41:19;;;;;;;6.22;4.78;;;10.80;78.80;;;;;;651112;221;26497;-76
2022/05/04 00:43:51;;;;;;;5.72;4.35;;;10.90;78.50;;;;;;651121;221;26752;-77
2022/05/04 00:46:18;;;;;;;7.28;4.90;;;10.90;78.50;;;;;;651517;221;26731;-77
2022/05/04 00:48:45;;;;;;;5.28;4.40;;;10.90;78.10;;;;;;651534;221;26488;-76
2022/05/04 00:51:12;;;;;;;6.07;4.60;;;10.80;78.60;;;;;;651489;221;26563;-76
2022/05/04 00:53:40;;;;;;;4.95;4.20;;;10.60;78.60;;;;;;651188;221;26509;-77
2022/05/04 00:56:08;;;;;;;4.75;4.20;;;10.60;78.60;;;;;;651253;221;26751;-76
2022/05/04 01:01:07;;;;;;;5.70;4.30;;;10.60;80.50;;;;;;651174;221;26744;-76
2022/05/04 01:03:35;;;;;;;5.00;4.05;;;10.50;80.20;;;;;;651179;221;26533;-76
2022/05/04 01:06:02;;;;;;;6.00;4.60;;;10.50;80.60;;;;;;651184;221;26827;-76
2022/05/04 01:08:29;;;;;;;7.03;4.55;;;10.50;81.20;;;;;;651210;221;26524;-76
2022/05/04 01:10:56;;;;;;;4.90;3.80;;;10.40;81.40;;;;;;651197;221;26502;-76
2022/05/04 01:13:24;;;;;;;4.80;4.10;;;10.30;81.80;;;;;;650822;221;26611;-76
2022/05/04 01:15:52;;;;;;;5.47;4.18;;;10.30;82.20;;;;;;650791;221;26586;-76
2022/05/04 01:18:20;;;;;;;6.40;4.70;;;10.20;82.10;;;;;;650769;221;26586;-76
2022/05/04 01:20:47;;;;;;;7.45;4.68;;;10.20;82.10;;;;;;650743;221;26535;-76
2022/05/04 01:23:15;;;;;;;5.57;4.37;;;10.20;82.00;;;;;;650734;219;26579;-76
2022/05/04 01:25:42;;;;;;;5.12;4.28;;;10.20;82.30;;;;;;650768;221;26786;-76
2022/05/04 01:28:09;;;;;;;5.40;3.95;;;10.20;82.80;;;;;;652069;219;26607;-75
2022/05/04 01:30:37;;;;;;;5.12;4.10;;;10.10;84.00;;;;;;652277;220;26816;-76
2022/05/04 01:33:04;;;;;;;4.57;4.18;;;10.00;83.90;;;;;;651926;220;26814;-76
2022/05/04 01:35:31;;;;;;;6.05;4.30;;;10.00;83.30;;;;;;651881;219;26520;-77
2022/05/04 01:37:58;;;;;;;4.57;4.05;;;10.00;83.50;;;;;;651576;221;27068;-76
2022/05/04 01:40:26;;;;;;;4.12;3.55;;;10.00;83.30;;;;;;651448;221;26484;-76
2022/05/04 01:42:53;;;;;;;4.43;3.92;;;9.90;86.00;;;;;;651422;217;26554;-76
2022/05/04 01:45:22;;;;;;;5.95;4.07;;;9.90;86.10;;;;;;651301;221;26593;-76
2022/05/04 01:47:49;;;;;;;5.15;4.50;;;9.80;85.70;;;;;;651075;221;26508;-76
2022/05/04 01:50:17;;;;;;;4.22;3.65;;;9.80;85.60;;;;;;651099;221;26473;-76
2022/05/04 01:52:44;;;;;;;4.85;4.00;;;9.80;85.60;;;;;;650840;221;26508;-76
2022/05/04 01:55:12;;;;;;;4.82;3.80;;;9.70;85.70;;;;;;651092;221;26513;-76
2022/05/04 01:57:39;;;;;;;5.03;4.53;;;9.70;85.70;;;;;;651073;221;26532;-76
2022/05/04 02:00:07;;;;;;;6.07;3.78;;;9.70;85.70;;;;;;651062;221;26508;-78
2022/05/04 02:02:35;;;;;;;3.97;3.55;;;9.70;85.80;;;;;;650990;221;26541;-76
2022/05/04 02:05:02;;;;;;;5.10;3.92;;;9.70;85.90;;;;;;651208;221;26784;-76
2022/05/04 02:07:30;;;;;;;5.05;4.37;;;9.80;86.20;;;;;;650667;221;26547;-77
2022/05/04 02:09:58;;;;;;;4.68;3.62;;;9.70;86.60;;;;;;650833;220;26552;-77
2022/05/04 02:12:25;;;;;;;4.62;3.50;;;9.70;86.60;;;;;;650735;221;26558;-77
2022/05/04 02:14:52;;;;;;;4.37;4.03;;;9.60;86.50;;;;;;650748;221;26504;-77
2022/05/04 02:17:19;;;;;;;3.87;3.47;;;9.60;86.60;;;;;;650782;221;26787;-77
2022/05/04 02:19:46;;;;;;;4.70;3.90;;;9.60;87.00;;;;;;650780;221;26562;-76
2022/05/04 02:22:14;;;;;;;4.05;3.65;;;9.60;87.00;;;;;;650799;221;26535;-76
2022/05/04 02:24:42;;;;;;;4.72;4.07;;;9.60;87.50;;;;;;650809;221;26527;-76
2022/05/04 02:27:10;;;;;;;4.30;3.67;;;9.50;87.60;;;;;;650798;221;26574;-76
2022/05/04 02:29:37;;;;;;;4.10;3.50;;;9.50;87.60;;;;;;650761;220;26781;-77
2022/05/04 02:32:05;;;;;;;3.87;3.53;;;9.50;87.90;;;;;;650798;221;26582;-77
2022/05/04 02:34:32;;;;;;;3.60;3.30;;;9.50;88.30;;;;;;650921;221;26835;-77
2022/05/04 02:39:33;;;;;;;4.28;3.87;;;9.40;88.90;;;;;;651864;219;26565;-77
2022/05/04 02:42:00;;;;;;;4.47;3.55;;;9.40;88.90;;;;;;652156;220;26599;-77
2022/05/04 02:44:27;;;;;;;4.60;3.70;;;9.50;88.90;;;;;;651851;220;26758;-77
2022/05/04 02:46:55;;;;;;;4.95;3.92;;;9.40;89.10;;;;;;651706;221;26513;-77
2022/05/04 02:49:22;;;;;;;4.07;3.67;;;9.40;89.30;;;;;;651386;221;26767;-77
2022/05/04 02:51:49;;;;;;;5.32;3.47;;;9.40;89.70;;;;;;651244;221;26573;-77
2022/05/04 02:54:18;;;;;;;4.05;3.60;;;9.30;89.90;;;;;;651257;221;26806;-77
2022/05/04 02:56:45;;;;;;;4.47;3.95;;;9.20;89.80;;;;;;651274;219;26565;-77
2022/05/04 02:59:12;;;;;;;3.90;3.40;;;9.20;90.10;;;;;;651093;221;26482;-77
2022/05/04 03:04:19;;;;;;;4.22;3.40;;;9.10;90.40;;;;;;651047;221;26520;-77
2022/05/04 03:06:47;;;;;;;4.75;3.80;;;9.10;90.50;;;;;;651102;221;26737;-77
2022/05/04 03:09:14;;;;;;;3.70;3.40;;;9.10;90.80;;;;;;650974;221;26515;-77
2022/05/04 03:14:15;;;;;;;3.85;3.55;;;9.10;90.80;;;;;;651181;221;26520;-76
2022/05/04 03:16:43;;;;;;;3.92;3.35;;;9.10;90.70;;;;;;650835;221;26556;-77
2022/05/04 03:19:10;;;;;;;3.40;3.00;;;9.10;90.70;;;;;;650750;221;26766;-77
2022/05/04 03:21:37;;;;;;;4.75;3.53;;;9.20;90.80;;;;;;650714;221;26561;-77
2022/05/04 03:24:05;;;;;;;3.95;3.55;;;9.20;91.40;;;;;;650742;221;26505;-76
2022/05/04 03:26:33;;;;;;;3.75;3.28;;;9.10;91.30;;;;;;650858;221;26520;-77
2022/05/04 03:29:00;;;;;;;3.25;2.90;;;9.10;91.10;;;;;;650865;221;26927;-77
2022/05/04 03:31:27;;;;;;;4.53;3.60;;;9.10;91.10;;;;;;650798;221;26501;-77
2022/05/04 03:33:55;;;;;;;3.33;3.03;;;9.10;91.10;;;;;;650796;221;26575;-77
2022/05/04 03:36:22;;;;;;;3.70;3.33;;;9.10;91.30;;;;;;650767;221;26562;-76
2022/05/04 03:38:50;;;;;;;4.03;3.30;;;9.00;91.20;;;;;;650827;221;26553;-76
2022/05/04 03:41:18;;;;;;;3.35;3.08;;;9.10;91.30;;;;;;649149;221;26554;-75
2022/05/04 03:43:45;;;;;;;3.28;2.97;;;9.10;91.30;;;;;;639320;221;26527;-75
2022/05/04 03:46:15;;;;;;;3.33;3.03;;;9.10;91.30;;;;;;649337;221;27096;-75
2022/05/04 03:48:41;;;;;;;4.07;3.40;;;9.10;91.30;;;;;;638547;224;26740;-76
2022/05/04 03:51:09;;;;;;;3.62;3.12;;;9.10;91.40;;;;;;639647;223;26587;-76
2022/05/04 03:53:36;;;;;;;3.62;3.33;;;9.10;91.30;;;;;;639831;225;26817;-76
2022/05/04 03:56:04;;;;;;;3.42;3.12;;;9.20;91.30;;;;;;640827;221;26521;-76
2022/05/04 03:58:31;;;;;;;3.28;2.97;;;9.20;91.30;;;;;;647651;221;26515;-76
2022/05/04 04:00:58;;;;;;;3.28;3.00;;;9.20;91.30;;;;;;644632;221;27342;-76
2022/05/04 04:03:26;;;;;;;3.45;3.15;;;9.30;91.40;;;;;;643373;221;26581;-76
2022/05/04 04:05:54;;;;;;;3.75;2.95;;;9.30;91.30;;;;;;645906;221;26514;-76
2022/05/04 04:08:22;;;;;;;3.67;3.28;;;9.40;91.40;;;;;;651369;221;26558;-76
2022/05/04 04:10:49;;;;;;;3.30;3.00;;;9.40;91.30;;;;;;645459;221;26567;-76
2022/05/04 04:13:17;;;;;;;3.55;3.08;;;9.30;91.30;;;;;;638306;225;26806;-76
2022/05/04 04:15:44;;;;;;;5.30;3.58;;;9.40;91.60;;;;;;637911;225;26563;-78
2022/05/04 04:18:11;;;;;;;3.20;2.90;;;9.40;91.30;;;;;;650985;221;26745;-76
2022/05/04 04:23:11;;;;;;;3.10;2.80;;;9.50;91.20;;;;;;638148;225;26608;-76
2022/05/04 04:25:38;;;;;;;3.28;3.08;;;9.70;91.20;;;;;;637687;224;26770;-76
2022/05/04 04:28:05;;;;;;;3.42;3.05;;;9.80;91.20;;;;;;638358;224;26525;-76
2022/05/04 04:30:32;;;;;;;4.20;3.10;;;10.00;92.50;;;;;;641600;221;27242;-76
2022/05/04 04:33:00;;;;;;;3.05;2.75;;;10.10;91.20;;;;;;643971;221;26538;-76
2022/05/04 04:35:28;;;;;;;3.33;2.72;;;10.10;91.00;;;;;;638158;221;26516;-76
2022/05/04 04:37:56;;;;;;;4.05;3.22;;;10.20;91.00;;;;;;638487;221;26505;-76
2022/05/04 04:40:24;;;;;;;3.20;2.92;;;10.40;91.00;;;;;;638455;224;26618;-75
2022/05/04 04:42:52;;;;;;;3.60;3.00;;;10.30;90.70;;;;;;643171;219;26540;-76
2022/05/04 04:45:19;;;;;;;3.12;2.65;;;10.50;90.50;;;;;;642285;221;26488;-77
2022/05/04 04:47:46;;;;;;;2.80;2.60;;;10.60;89.90;;;;;;638282;221;26778;-76
2022/05/04 04:50:13;;;;;;;3.30;3.00;;;10.80;88.90;;;;;;640719;221;26518;-77
2022/05/04 04:52:40;;;;;;;3.30;3.00;;;11.00;90.00;;;;;;650724;221;26870;-76
2022/05/04 04:55:08;;;;;;;3.67;3.37;;;11.20;88.70;;;;;;643284;220;26559;-76
2022/05/04 04:57:37;;;;;;;2.97;2.78;;;11.40;87.20;;;;;;638527;224;26552;-76
2022/05/04 05:00:05;;;;;;;5.10;2.92;;;11.40;86.50;;;;;;638914;221;27036;-78
2022/05/04 05:02:35;;;;;;;3.05;2.80;;;11.40;86.20;;;;;;647544;219;26609;-76
2022/05/04 05:04:59;;;;;;;3.42;3.00;;;11.60;85.30;;;;;;638782;220;26796;-76
2022/05/04 05:07:26;;;;;;;3.70;2.90;;;11.70;84.90;;;;;;639194;225;26570;-77
2022/05/04 05:09:54;;;;;;;4.22;3.12;;;11.90;84.40;;;;;;638496;225;27368;-76
2022/05/04 05:12:22;;;;;;;2.70;2.50;;;12.00;83.10;;;;;;642321;221;26539;-76
2022/05/04 05:17:22;;;;;;;3.22;2.92;;;12.10;82.80;;;;;;646864;221;26573;-77
2022/05/04 05:19:50;;;;;;;3.20;2.90;;;12.30;82.40;;;;;;639996;221;26520;-77
2022/05/04 05:22:18;;;;;;;2.90;2.55;;;12.30;81.30;;;;;;637881;225;26582;-76
2022/05/04 05:24:46;;;;;;;4.62;2.87;;;12.30;81.30;;;;;;642080;222;26505;-64
2022/05/04 05:27:13;;;;;;;2.87;2.67;;;12.40;81.10;;;;;;641220;222;26581;-72
2022/05/04 05:29:40;;;;;;;3.15;2.87;;;12.50;80.90;;;;;;637600;225;26796;-72
2022/05/04 05:32:08;;;;;;;3.20;2.50;;;12.60;81.10;;;;;;638635;221;26582;-72
2022/05/04 05:34:35;;;;;;;2.62;2.40;;;12.70;80.70;;;;;;638004;221;26582;-71
2022/05/04 05:37:02;;;;;;;2.80;2.60;;;12.90;80.10;;;;;;644871;221;26899;-78
2022/05/04 05:39:30;;;;;;;3.37;2.47;;;13.00;80.10;;;;;;640829;221;26564;-76
2022/05/04 05:41:58;;;;;;;2.83;2.62;;;13.10;79.30;;;;;;638579;221;26596;-76
2022/05/04 05:44:25;;;;;;;2.62;2.42;;;13.10;78.80;;;;;;646074;221;26921;-77
2022/05/04 05:46:52;;;;;;;3.67;3.37;;;13.20;78.60;;;;;;642993;221;26603;-77
2022/05/04 05:49:20;;;;;;;3.67;3.25;;;13.20;77.90;;;;;;638514;224;26536;-76
2022/05/04 05:51:47;;;;;;;3.03;2.80;;;13.30;77.70;;;;;;637537;225;26768;-77
2022/05/04 05:54:14;;;;;;;3.67;2.87;;;13.40;77.30;;;;;;638890;221;26540;-78
2022/05/04 05:56:41;;;;;;;3.40;3.10;;;13.50;76.60;;;;;;644385;221;26778;-77
2022/05/04 05:59:08;;;;;;;2.75;2.50;;;13.70;76.20;;;;;;641851;220;26556;-76
2022/05/04 06:01:36;;;;;;;3.10;2.80;;;13.80;75.40;;;;;;638609;221;26881;-76
2022/05/04 06:04:03;;;;;;;2.80;2.60;;;14.00;75.00;;;;;;650725;221;26585;-77
2022/05/04 06:06:30;;;;;;;2.62;2.42;;;14.20;78.80;;;;;;645423;221;26564;-76
2022/05/04 06:08:58;;;;;;;3.22;2.87;;;14.20;73.30;;;;;;638062;225;26524;-76
2022/05/04 06:11:26;;;;;;;2.65;2.45;;;14.30;73.40;;;;;;637572;224;26563;-76
2022/05/04 06:13:54;;;;;;;2.87;2.67;;;14.60;72.80;;;;;;645416;220;26566;-76
2022/05/04 06:16:22;;;;;;;2.60;2.40;;;14.80;72.70;;;;;;643729;220;26521;-75
2022/05/04 06:18:49;;;;;;;2.67;2.47;;;14.80;72.50;;;;;;648798;220;26594;-76
2022/05/04 06:21:16;;;;;;;3.10;2.33;;;14.90;72.50;;;;;;640557;222;26572;-76
2022/05/04 06:23:44;;;;;;;3.37;2.83;;;15.00;72.10;;;;;;638826;221;26778;-76
2022/05/04 06:26:11;;;;;;;2.90;2.70;;;15.10;71.10;;;;;;642234;221;26556;-76
2022/05/04 06:28:39;;;;;;;2.90;2.53;;;15.30;72.80;;;;;;651635;219;27159;-77
2022/05/04 06:36:12;;;;;;;14.68;3.28;;;15.50;69.70;;;;;;637913;224;26583;-76
2022/05/04 06:38:40;;;;;;;7.82;2.58;;;15.40;68.70;;;;;;638013;221;26563;-78
2022/05/04 06:41:07;;;;;;;4.65;2.40;;;15.40;68.70;;;;;;637833;224;26564;-76
2022/05/04 06:43:35;;;;;;;2.87;2.50;;;15.50;68.90;;;;;;637762;223;26808;-77
2022/05/04 06:46:02;;;;;;;6.68;2.90;;;15.70;68.80;;;;;;637671;224;26560;-77
2022/05/04 06:48:30;;;;;;;3.20;2.58;;;15.90;69.30;;;;;;637755;225;26563;-77
2022/05/04 06:50:57;;;;;;;5.05;2.60;;;15.90;69.30;;;;;;637462;224;26512;-76
2022/05/04 06:53:24;;;;;;;2.85;2.55;;;16.00;67.90;;;;;;637317;225;26543;-78
2022/05/04 06:55:52;;;;;;;4.72;3.12;;;16.00;67.50;;;;;;641165;221;26882;-79
2022/05/04 06:58:19;;;;;;;5.45;4.07;;;15.80;67.00;;;;;;650800;221;26570;-80
2022/05/04 07:00:46;;;;;;;7.60;3.78;;;15.90;67.20;;;;;;640908;221;26803;-80
2022/05/04 07:03:13;;;;;;;6.53;5.03;;;16.00;66.20;;;;;;638520;224;26535;-80
2022/05/04 07:05:41;;;;;;;6.35;4.25;;;16.10;68.40;;;;;;638585;224;26796;-79
2022/05/04 07:08:09;;;;;;;5.32;4.82;;;16.20;65.10;;;;;;638584;224;26523;-77
2022/05/04 07:10:37;;;;;;;6.65;4.43;;;16.40;64.60;;;;;;638554;223;26492;-79
2022/05/04 07:13:06;;;;;;;7.22;4.80;;;16.30;63.80;;;;;;638553;225;26519;-78
2022/05/04 07:15:32;;;;;;;7.90;5.25;;;16.30;63.90;;;;;;638543;224;26516;-77
2022/05/04 07:17:59;;;;;;;4.40;3.62;;;16.40;63.80;;;;;;638598;225;26547;-78
2022/05/04 07:20:26;;;;;;;8.68;4.47;;;16.40;64.00;;;;;;638549;224;26765;-78
2022/05/04 07:22:53;;;;;;;7.00;5.00;;;16.30;62.90;;;;;;638528;224;26547;-79
2022/05/04 07:25:20;;;;;;;4.22;3.47;;;16.60;63.70;;;;;;639227;223;26864;-79
2022/05/04 07:27:48;;;;;;;7.93;3.87;;;16.80;65.30;;;;;;640162;224;26515;-79
2022/05/04 07:30:15;;;;;;;4.45;3.55;;;16.90;64.90;;;;;;639726;224;26792;-79
2022/05/04 07:32:42;;;;;;;3.92;3.47;;;17.10;63.20;;;;;;639521;222;26535;-78
2022/05/04 07:35:09;;;;;;;4.78;3.25;;;17.20;61.00;;;;;;639340;224;27053;-78
2022/05/04 07:37:36;;;;;;;4.57;3.45;;;17.30;61.00;;;;;;638997;221;26577;-79
2022/05/04 07:42:39;;;;;;;7.50;4.80;;;17.10;61.90;;;;;;638314;224;26511;-77
2022/05/04 07:45:06;;;;;;;6.50;4.78;;;17.10;60.50;;;;;;639317;225;26802;-66
2022/05/04 07:47:32;;;;;;;11.50;5.32;;;16.90;60.70;;;;;;637989;221;26572;-66
2022/05/04 07:50:00;;;;;;;9.07;4.68;;;16.60;63.60;;;;;;639701;221;27275;-67
2022/05/04 07:52:28;;;;;;;9.32;3.90;;;16.60;63.70;;;;;;639611;221;26831;-66
2022/05/04 07:54:55;;;;;;;10.73;5.50;;;16.60;64.10;;;;;;643452;221;26566;-68
2022/05/04 07:57:22;;;;;;;10.60;4.68;;;16.60;62.30;;;;;;650969;221;26788;-67
2022/05/04 08:04:55;;;;;;;9.00;4.57;;;16.20;64.00;;;;;;639509;221;26836;-66
2022/05/04 08:07:22;;;;;;;5.82;4.62;;;16.10;64.40;;;;;;642410;221;26529;-67
2022/05/04 08:09:49;;;;;;;6.20;3.90;;;16.00;64.00;;;;;;649142;220;26544;-67
2022/05/04 08:12:17;;;;;;;6.57;4.32;;;16.20;63.60;;;;;;638528;221;26542;-66
2022/05/04 08:14:45;;;;;;;8.50;3.87;;;16.30;62.90;;;;;;638055;224;26515;-66
2022/05/04 08:17:13;;;;;;;5.90;4.45;;;16.40;63.30;;;;;;646237;221;26635;-66
2022/05/04 08:19:41;;;;;;;7.10;4.10;;;16.40;62.20;;;;;;650379;221;26597;-66
2022/05/04 08:22:12;;;;;;;11.10;4.50;;;16.40;62.20;;;;;;637387;221;26811;-67
2022/05/04 08:24:36;;;;;;;7.78;3.58;;;16.30;61.90;;;;;;643761;221;26558;-66
2022/05/04 08:27:03;;;;;;;5.87;4.30;;;16.30;62.60;;;;;;638187;221;26814;-67
2022/05/04 08:29:30;;;;;;;5.18;4.00;;;16.50;63.20;;;;;;647870;221;26590;-67
2022/05/04 08:31:59;;;;;;;6.20;4.10;;;16.50;61.90;;;;;;638182;221;26604;-67
2022/05/04 08:34:26;;;;;;;5.22;4.10;;;16.50;62.00;;;;;;641492;221;26517;-68
2022/05/04 08:36:54;;;;;;;8.05;3.67;;;16.60;64.10;;;;;;641094;221;26594;-67
2022/05/04 08:39:21;;;;;;;11.50;4.32;;;16.60;64.00;;;;;;640350;224;26556;-67
2022/05/04 08:41:48;;;;;;;6.05;4.07;;;16.70;61.00;;;;;;642373;220;26595;-67
2022/05/04 08:44:16;;;;;;;4.97;3.62;;;16.60;61.30;;;;;;638638;221;26572;-66
2022/05/04 08:46:44;;;;;;;5.43;3.90;;;17.00;62.20;;;;;;645053;221;26580;-66
2022/05/04 08:49:12;;;;;;;4.80;3.95;;;17.10;60.00;;;;;;643146;221;26554;-66
2022/05/04 08:51:39;;;;;;;4.35;3.40;;;17.10;60.00;;;;;;645715;221;26577;-65
2022/05/04 08:54:06;;;;;;;4.40;4.00;;;17.20;60.30;;;;;;649460;221;26528;-66
2022/05/04 08:56:33;;;;;;;5.37;4.03;;;17.50;59.70;;;;;;643491;221;26931;-68
2022/05/04 08:59:02;;;;;;;4.07;3.67;;;17.70;60.00;;;;;;645908;221;26833;-68
2022/05/04 09:01:30;;;;;;;3.42;3.10;;;17.90;58.90;;;;;;641095;221;26550;-68
2022/05/04 09:03:58;;;;;;;4.20;3.30;;;18.00;58.30;;;;;;639767;221;26564;-68
2022/05/04 09:06:27;;;;;;;3.15;2.85;;;18.30;58.20;;;;;;638969;221;26942;-69
2022/05/04 09:08:55;;;;;;;5.57;3.55;;;18.50;58.00;;;;;;637894;224;26571;-69
2022/05/04 09:11:23;;;;;;;4.72;3.92;;;18.80;58.50;;;;;;638952;225;26538;-69
2022/05/04 09:13:50;;;;;;;5.35;4.10;;;18.90;59.40;;;;;;638852;222;26557;-69
2022/05/04 09:16:25;;;;;;;6.07;4.22;;;18.90;57.40;;;;;;641056;223;26532;-71
2022/05/04 09:18:52;;;;;;;4.68;4.20;;;18.90;59.10;;;;;;648592;221;26498;-68
2022/05/04 09:21:22;;;;;;;4.22;3.58;;;19.20;58.50;;;;;;640937;221;26528;-68
2022/05/04 09:23:49;;;;;;;5.60;3.67;;;19.10;58.40;;;;;;638726;223;26557;-69
2022/05/04 09:26:18;;;;;;;3.97;3.60;;;19.50;57.50;;;;;;641848;221;26539;-69
2022/05/04 09:28:45;;;;;;;7.37;3.55;;;20.10;54.90;;;;;;641370;221;26524;-68
2022/05/04 09:31:13;;;;;;;3.17;2.90;;;20.30;54.70;;;;;;637598;224;26536;-68
2022/05/04 09:33:40;;;;;;;2.37;2.28;;;20.30;54.70;;;;;;638887;221;26581;-69
2022/05/04 09:36:07;;;;;;;3.08;2.40;;;20.40;54.30;;;;;;650816;221;26588;-69
2022/05/04 09:46:15;;;;;;;4.70;3.90;;;20.80;53.20;;;;;;639055;225;26512;-68
2022/05/04 09:48:43;;;;;;;2.97;2.65;;;21.00;52.90;;;;;;645126;219;26556;-69
2022/05/04 09:51:10;;;;;;;5.30;3.03;;;21.00;52.90;;;;;;643641;220;26563;-69
2022/05/04 09:53:37;;;;;;;3.33;2.42;;;21.20;53.80;;;;;;638606;220;26545;-69
2022/05/04 09:56:04;;;;;;;3.78;3.22;;;21.40;54.20;;;;;;641202;222;27213;-69
2022/05/04 09:58:31;;;;;;;5.20;3.42;;;21.50;54.60;;;;;;648293;221;26576;-69
2022/05/04 10:00:59;;;;;;;6.22;3.80;;;21.60;53.90;;;;;;640368;221;27095;-69
2022/05/04 10:03:26;;;;;;;4.07;2.75;;;21.70;53.00;;;;;;638302;224;26539;-70
2022/05/04 10:05:54;;;;;;;3.40;3.08;;;21.80;53.50;;;;;;637901;224;26823;-69
2022/05/04 10:08:22;;;;;;;4.68;3.45;;;21.90;53.90;;;;;;641596;221;26566;-67
2022/05/04 10:10:49;;;;;;;100.15;22.62;;;21.90;53.90;;;;;;644437;221;26539;-67
2022/05/04 10:13:17;;;;;;;303.98;40.80;;;22.10;52.90;;;;;;646791;221;26523;-67
2022/05/04 10:15:45;;;;;;;1999.90;302.92;;;22.10;52.70;;;;;;639265;221;26564;-68
2022/05/04 10:18:12;;;;;;;1895.13;183.37;;;22.10;52.70;;;;;;640883;221;26597;-67
2022/05/04 10:20:40;;;;;;;65.35;15.38;;;22.30;52.40;;;;;;645255;221;26763;-67
2022/05/04 10:23:09;;;;;;;38.03;13.07;;;22.40;53.20;;;;;;637586;225;26580;-68
2022/05/04 10:25:38;;;;;;;67.72;19.08;;;22.70;54.30;;;;;;638267;224;26744;-67
2022/05/04 10:28:04;;;;;;;65.10;19.08;;;22.80;52.80;;;;;;637587;225;26536;-67
2022/05/04 10:30:32;;;;;;;17.37;6.12;;;22.70;51.20;;;;;;638900;225;27094;-67
2022/05/04 10:32:59;;;;;;;4.28;2.65;;;22.80;53.20;;;;;;637964;224;26589;-66
2022/05/04 10:35:34;;;;;;;2.58;2.37;;;22.70;51.30;;;;;;647453;221;26828;-66
2022/05/04 10:38:17;;;;;;;3.17;2.87;;;22.60;51.40;;;;;;648510;221;26559;-67
2022/05/04 10:40:45;;;;;;;4.85;2.72;;;22.60;50.90;;;;;;643413;221;26634;-67
2022/05/04 10:43:13;;;;;;;3.62;2.67;;;22.60;50.80;;;;;;641871;221;26582;-68
2022/05/04 10:45:41;;;;;;;7.50;4.05;;;22.30;52.90;;;;;;648399;221;26570;-68
2022/05/04 10:48:16;;;;;;;4.50;3.30;;;22.30;52.90;;;;;;640597;221;26555;-67
2022/05/04 10:50:48;;;;;;;2.75;2.55;;;22.20;52.60;;;;;;645358;220;26547;-68
2022/05/04 10:53:18;;;;;;;28.70;10.40;;;22.00;52.30;;;;;;639158;225;26813;-67
2022/05/04 10:55:45;;;;;;;4.07;2.72;;;21.90;51.20;;;;;;638987;224;26758;-66
2022/05/04 10:58:24;;;;;;;4.70;2.62;;;21.90;51.30;;;;;;638842;224;26722;-67
2022/05/04 11:01:02;;;;;;;2.05;1.95;;;21.60;52.20;;;;;;640090;223;26508;-69
2022/05/04 11:03:35;;;;;;;2.72;2.33;;;21.30;51.60;;;;;;640099;220;26624;-67
2022/05/04 11:06:14;;;;;;;4.10;2.60;;;21.20;51.30;;;;;;641302;221;26721;-67
2022/05/04 11:08:43;;;;;;;3.42;2.37;;;21.60;51.00;;;;;;646142;221;26546;-68
2022/05/04 11:11:08;;;;;;;2.45;2.33;;;21.50;50.80;;;;;;643908;222;27247;-68
2022/05/04 11:13:36;;;;;;;7.22;3.60;;;21.40;51.10;;;;;;650556;221;26592;-67
2022/05/04 11:16:03;;;;;;;2.20;1.90;;;21.60;50.90;;;;;;651425;221;26779;-68
2022/05/04 11:18:30;;;;;;;5.12;2.87;;;22.00;51.50;;;;;;646254;221;26532;-67
2022/05/04 11:20:59;;;;;;;2.85;2.08;;;22.20;50.30;;;;;;638785;225;26514;-67
2022/05/04 11:23:26;;;;;;;2.45;2.22;;;22.20;51.10;;;;;;638619;224;26568;-66
2022/05/04 11:25:53;;;;;;;2.17;2.08;;;22.50;49.90;;;;;;639088;224;26740;-67
2022/05/04 11:28:23;;;;;;;2.12;2.03;;;22.40;49.80;;;;;;639283;224;26753;-67
2022/05/04 11:30:52;;;;;;;2.78;2.30;;;22.60;52.30;;;;;;639380;224;26518;-67
2022/05/04 11:33:18;;;;;;;1.77;1.67;;;22.40;49.30;;;;;;639247;224;26820;-67
2022/05/04 11:36:01;;;;;;;5.45;2.40;;;22.20;50.50;;;;;;639270;224;26514;-66
2022/05/04 11:38:28;;;;;;;2.30;2.17;;;22.20;50.50;;;;;;639074;225;26824;-66
2022/05/04 11:40:55;;;;;;;2.40;2.10;;;22.30;52.90;;;;;;639068;224;26574;-66
2022/05/04 11:43:27;;;;;;;2.40;2.20;;;22.20;49.70;;;;;;638931;224;26813;-66
2022/05/04 11:45:54;;;;;;;3.67;2.28;;;22.30;50.60;;;;;;638754;224;26564;-66
2022/05/04 11:48:23;;;;;;;2.20;2.08;;;22.50;51.00;;;;;;638905;224;26582;-66
2022/05/04 11:50:50;;;;;;;4.62;2.97;;;22.50;50.90;;;;;;639015;225;26544;-67
2022/05/04 11:53:17;;;;;;;4.35;2.65;;;22.50;49.80;;;;;;639047;223;27213;-66
2022/05/04 11:55:44;;;;;;;5.50;2.50;;;22.70;52.00;;;;;;639109;225;26572;-67
2022/05/04 11:58:13;;;;;;;3.10;2.30;;;22.30;48.50;;;;;;639047;225;27200;-66
2022/05/04 12:00:39;;;;;;;4.45;2.85;;;22.40;51.80;;;;;;638919;224;26579;-66
2022/05/04 12:03:06;;;;;;;3.85;2.92;;;22.60;49.30;;;;;;638827;225;26595;-66
2022/05/04 12:05:34;;;;;;;3.30;2.67;;;22.60;49.00;;;;;;638884;225;27175;-67
2022/05/04 12:08:01;;;;;;;5.07;3.03;;;22.60;48.50;;;;;;638998;219;26548;-66
2022/05/04 12:10:28;;;;;;;3.90;2.85;;;22.50;49.00;;;;;;638991;225;26591;-66
2022/05/04 12:12:56;;;;;;;6.62;2.97;;;22.40;48.60;;;;;;640491;223;26595;-66
2022/05/04 12:15:24;;;;;;;5.30;3.10;;;22.60;48.40;;;;;;640229;224;26515;-67
2022/05/04 12:17:52;;;;;;;6.53;2.78;;;22.70;48.80;;;;;;639916;224;26513;-67
2022/05/04 12:20:21;;;;;;;3.55;2.78;;;22.80;48.10;;;;;;639671;223;26580;-66
2022/05/04 12:22:47;;;;;;;4.15;2.70;;;22.80;48.50;;;;;;639624;223;26534;-66
2022/05/04 12:25:15;;;;;;;2.87;2.40;;;23.20;48.00;;;;;;639650;225;26501;-66
2022/05/04 12:27:42;;;;;;;1.92;1.83;;;23.20;48.80;;;;;;639649;223;26754;-66
2022/05/04 12:35:17;;;;;;;3.08;2.62;;;23.80;48.60;;;;;;639777;224;26768;-66
2022/05/04 12:37:44;;;;;;;5.45;2.87;;;23.60;47.00;;;;;;639547;224;26833;-66
2022/05/04 12:40:12;;;;;;;3.87;3.00;;;23.30;46.80;;;;;;639466;224;26728;-66
2022/05/04 12:42:39;;;;;;;2.67;2.47;;;23.10;46.70;;;;;;639671;225;26511;-66
2022/05/04 12:45:06;;;;;;;3.65;2.65;;;23.00;46.50;;;;;;639715;224;26733;-66
2022/05/04 12:47:34;;;;;;;1.70;1.60;;;23.00;47.50;;;;;;639610;225;26479;-66
2022/05/04 12:50:01;;;;;;;3.28;2.65;;;23.20;48.50;;;;;;639391;224;26515;-67
2022/05/04 12:52:28;;;;;;;2.35;2.15;;;23.40;47.50;;;;;;639200;225;26865;-66
2022/05/04 12:54:55;;;;;;;2.17;2.08;;;23.70;47.90;;;;;;639048;225;26590;-66
2022/05/04 12:57:24;;;;;;;2.58;2.15;;;24.00;47.60;;;;;;639004;224;26570;-67
2022/05/04 12:59:51;;;;;;;2.20;2.00;;;24.00;47.60;;;;;;638935;223;26562;-66
2022/05/04 13:02:18;;;;;;;2.25;2.10;;;24.00;46.40;;;;;;638859;224;26599;-66
2022/05/04 13:04:46;;;;;;;2.65;2.45;;;24.10;46.80;;;;;;638978;225;26622;-66
2022/05/04 13:07:14;;;;;;;1.95;1.85;;;24.20;48.00;;;;;;638959;224;26571;-67
2022/05/04 13:09:42;;;;;;;2.42;2.28;;;24.40;48.40;;;;;;639004;224;26572;-68
2022/05/04 13:12:11;;;;;;;2.92;2.20;;;24.20;48.30;;;;;;638975;223;26586;-67
2022/05/04 13:14:38;;;;;;;2.30;2.10;;;24.20;48.10;;;;;;638957;224;26567;-67
2022/05/04 13:17:04;;;;;;;1.90;1.80;;;24.20;49.00;;;;;;639026;225;26566;-66
2022/05/04 13:19:34;;;;;;;2.58;2.22;;;25.20;46.20;;;;;;638940;225;26799;-68
2022/05/04 13:22:00;;;;;;;2.80;2.60;;;25.10;46.30;;;;;;638893;225;26829;-67
2022/05/04 13:24:27;;;;;;;3.12;2.83;;;24.80;44.70;;;;;;640495;223;26583;-66
2022/05/04 13:26:54;;;;;;;2.92;2.72;;;24.40;45.20;;;;;;640431;223;26907;-68
2022/05/04 13:29:21;;;;;;;2.90;2.70;;;24.50;45.10;;;;;;640123;223;26489;-68
2022/05/04 13:31:50;;;;;;;3.10;2.80;;;24.40;45.40;;;;;;639895;225;26620;-67